Time;durP1;ratioP1;P1;durP2;ratioP2;P2;SDS_P1;SDS_P2;PMS_P1;PMS_P2;Temp;Humidity;BMP_temperature;BMP_pressure;BME280_temperature;BME280_humidity;BME280_pressure;Samples;Min_cycle;Max_cycle;Signal;HPM_P1;HPM_P2
2023/04/04 00:00:10;;;;;;;2.50;2.33;;;;;;;-1.87;85.17;97819.31;4978300;28;20232;-66
2023/04/04 00:02:38;;;;;;;2.80;2.60;;;;;;;-1.97;83.90;97824.22;4980501;28;20917;-67
2023/04/04 00:05:08;;;;;;;3.73;2.47;;;;;;;-2.11;86.45;97817.22;4931336;28;20592;-67
2023/04/04 00:07:36;;;;;;;2.60;2.50;;;;;;;-2.12;88.52;97814.72;4972320;28;20205;-67
2023/04/04 00:10:03;;;;;;;2.77;2.57;;;;;;;-2.16;87.74;97819.25;4953319;28;20240;-67
2023/04/04 00:12:31;;;;;;;2.50;2.30;;;;;;;-2.31;88.69;97794.19;4980588;28;20628;-68
2023/04/04 00:15:00;;;;;;;2.77;2.57;;;;;;;-2.26;90.12;97812.94;4983126;28;20681;-65
2023/04/04 00:17:27;;;;;;;3.43;2.50;;;;;;;-2.32;90.52;97811.50;4976769;28;20686;-67
2023/04/04 00:19:56;;;;;;;2.80;2.43;;;;;;;-2.35;91.94;97803.91;4929202;28;20450;-67
2023/04/04 00:22:24;;;;;;;3.50;2.57;;;;;;;-2.47;92.13;97800.22;4976541;28;20219;-67
2023/04/04 00:24:52;;;;;;;2.37;2.17;;;;;;;-2.63;94.95;97798.50;4975950;28;20212;-67
2023/04/04 00:27:20;;;;;;;2.43;2.23;;;;;;;-2.70;95.01;97794.59;4949288;28;20209;-67
2023/04/04 00:29:48;;;;;;;3.53;2.67;;;;;;;-2.83;96.50;97794.44;4974662;28;20232;-68
2023/04/04 00:32:16;;;;;;;2.40;2.20;;;;;;;-2.87;97.59;97797.28;4974806;28;20205;-66
2023/04/04 00:34:44;;;;;;;2.60;2.50;;;;;;;-2.89;97.28;97794.78;4921449;28;20621;-66
2023/04/04 00:37:12;;;;;;;2.40;2.27;;;;;;;-2.94;98.81;97791.59;4969148;28;20210;-66
2023/04/04 00:39:41;;;;;;;2.73;2.53;;;;;;;-2.94;100.00;97796.78;4976343;28;20529;-67
2023/04/04 00:42:08;;;;;;;2.70;2.50;;;;;;;-2.95;100.00;97792.53;4950824;28;20223;-67
2023/04/04 00:44:36;;;;;;;2.37;2.27;;;;;;;-3.02;100.00;97794.59;4977292;28;20205;-68
2023/04/04 00:47:04;;;;;;;2.60;2.50;;;;;;;-3.11;100.00;97792.53;4973153;28;20209;-67
2023/04/04 00:49:33;;;;;;;2.47;2.37;;;;;;;-3.28;100.00;97770.91;4941016;28;20459;-67
2023/04/04 00:52:01;;;;;;;2.83;2.63;;;;;;;-3.21;100.00;97787.00;4975056;28;20205;-68
2023/04/04 00:54:30;;;;;;;3.73;2.53;;;;;;;-3.28;100.00;97786.47;4979072;28;20280;-67
2023/04/04 00:56:59;;;;;;;3.00;2.67;;;;;;;-3.28;100.00;97786.47;4954808;28;20856;-67
2023/04/04 00:59:27;;;;;;;2.70;2.50;;;;;;;-3.33;100.00;97777.28;4970872;28;20221;-68
2023/04/04 01:01:56;;;;;;;2.70;2.50;;;;;;;-3.35;100.00;97779.94;4971588;28;20228;-66
2023/04/04 01:04:28;;;;;;;2.83;2.63;;;;;;;-3.38;100.00;97775.78;4958719;28;20628;-67
2023/04/04 01:06:57;;;;;;;2.53;2.43;;;;;;;-3.48;100.00;97774.56;4965063;28;20231;-67
2023/04/04 01:09:24;;;;;;;2.80;2.60;;;;;;;-3.41;100.00;97775.09;4973304;28;20314;-68
2023/04/04 01:11:53;;;;;;;2.73;2.63;;;;;;;-3.45;100.00;97774.41;4941618;28;20487;-67
2023/04/04 01:14:22;;;;;;;3.07;2.77;;;;;;;-3.48;100.00;97772.00;4975631;28;20562;-68
2023/04/04 01:16:50;;;;;;;2.87;2.67;;;;;;;-3.45;100.00;97774.41;4975157;28;20218;-67
2023/04/04 01:19:37;;;;;;;2.63;2.50;;;;;;;-3.41;100.00;97778.53;4972520;28;20200;-67
2023/04/04 01:22:06;;;;;;;4.60;2.47;;;;;;;-3.42;100.00;97763.06;4918832;28;20629;-67
2023/04/04 01:24:34;;;;;;;2.53;2.40;;;;;;;-3.51;100.00;97756.59;4975670;28;20741;-68
2023/04/04 01:27:03;;;;;;;2.50;2.40;;;;;;;-3.45;100.00;97758.06;4950196;28;20215;-69
2023/04/04 01:29:31;;;;;;;2.40;2.30;;;;;;;-3.50;100.00;97748.78;4977141;28;20205;-69
2023/04/04 01:32:05;;;;;;;2.40;2.30;;;;;;;-3.52;100.00;97747.16;4975412;28;20708;-68
2023/04/04 01:34:41;;;;;;;3.10;2.80;;;;;;;-3.57;100.00;97749.16;4977067;28;20217;-69
2023/04/04 01:37:11;;;;;;;2.83;2.67;;;;;;;-3.57;100.00;97742.25;4923040;28;20227;-67
2023/04/04 01:39:43;;;;;;;2.53;2.43;;;;;;;-3.54;100.00;97747.25;4975973;28;20295;-66
2023/04/04 01:42:13;;;;;;;4.20;2.53;;;;;;;-3.68;100.00;97726.41;4950262;28;20611;-68
2023/04/04 01:44:40;;;;;;;4.03;2.60;;;;;;;-3.63;100.00;97747.72;4975582;28;20413;-67
2023/04/04 01:47:08;;;;;;;3.13;2.93;;;;;;;-3.64;100.00;97743.47;4973126;28;20234;-67
2023/04/04 01:49:36;;;;;;;3.20;2.97;;;;;;;-3.68;100.00;97734.19;4975637;28;20616;-69
2023/04/04 01:52:04;;;;;;;2.70;2.57;;;;;;;-3.70;100.00;97741.19;4919464;28;20585;-68
2023/04/04 01:54:32;;;;;;;2.90;2.80;;;;;;;-3.73;100.00;97744.81;4977383;28;20669;-68
2023/04/04 01:57:00;;;;;;;2.93;2.63;;;;;;;-3.76;100.00;97737.19;4973903;28;20247;-69
2023/04/04 01:59:29;;;;;;;2.90;2.70;;;;;;;-3.71;100.00;97739.53;4951945;28;20216;-69
2023/04/04 02:01:57;;;;;;;2.90;2.70;;;;;;;-3.66;100.00;97735.78;4971846;28;20669;-68
2023/04/04 02:04:24;;;;;;;3.13;2.93;;;;;;;-3.69;100.00;97737.69;4974618;28;20996;-68
2023/04/04 02:06:54;;;;;;;3.27;2.97;;;;;;;-3.77;100.00;97732.94;4975367;28;20204;-67
2023/04/04 02:09:22;;;;;;;2.90;2.70;;;;;;;-3.78;100.00;97734.69;4923652;28;20215;-68
2023/04/04 02:11:50;;;;;;;2.93;2.70;;;;;;;-3.78;100.00;97739.03;4977671;28;21071;-66
2023/04/04 02:14:18;;;;;;;2.83;2.63;;;;;;;-3.85;100.00;97733.34;4942374;28;20213;-67
2023/04/04 02:16:47;;;;;;;2.97;2.77;;;;;;;-3.87;100.00;97731.72;4967841;28;20201;-66
2023/04/04 02:19:14;;;;;;;3.17;2.93;;;;;;;-3.89;100.00;97726.66;4976381;28;20204;-68
2023/04/04 02:21:42;;;;;;;2.90;2.80;;;;;;;-3.89;100.00;97730.97;4976727;28;20540;-65
2023/04/04 02:24:10;;;;;;;3.63;2.63;;;;;;;-3.96;100.00;97733.06;4898502;28;20201;-67
2023/04/04 02:26:37;;;;;;;4.87;2.93;;;;;;;-3.90;100.00;97739.66;4972675;28;20899;-67
2023/04/04 02:29:06;;;;;;;2.97;2.77;;;;;;;-3.89;100.00;97734.41;4955676;28;20351;-67
2023/04/04 02:31:33;;;;;;;2.70;2.50;;;;;;;-3.91;100.00;97733.66;4976396;28;20233;-67
2023/04/04 02:34:02;;;;;;;4.97;3.30;;;;;;;-3.96;100.00;97733.88;4976244;28;20799;-66
2023/04/04 02:36:30;;;;;;;3.13;2.93;;;;;;;-4.01;100.00;97732.44;4973589;28;20213;-68
2023/04/04 02:38:58;;;;;;;3.20;2.87;;;;;;;-3.99;100.00;97723.69;4927748;28;20213;-68
2023/04/04 02:41:25;;;;;;;2.63;2.47;;;;;;;-3.98;100.00;97727.09;4978146;28;20221;-68
2023/04/04 02:43:53;;;;;;;3.30;3.10;;;;;;;-4.07;100.00;97731.84;4975154;28;20205;-67
2023/04/04 02:46:20;;;;;;;3.50;3.20;;;;;;;-4.18;100.00;97715.19;4949185;28;20219;-68
2023/04/04 02:48:50;;;;;;;3.00;2.73;;;;;;;-4.10;100.00;97728.59;4969306;28;20247;-67
2023/04/04 02:51:19;;;;;;;3.00;2.87;;;;;;;-4.12;100.00;97733.84;4975473;28;20601;-67
2023/04/04 02:53:48;;;;;;;3.27;3.00;;;;;;;-4.12;100.00;97733.00;4936362;28;20236;-67
2023/04/04 02:56:16;;;;;;;2.80;2.60;;;;;;;-4.16;100.00;97728.91;4949518;28;20546;-68
2023/04/04 02:58:43;;;;;;;4.37;3.07;;;;;;;-4.23;100.00;97736.13;4968711;28;20212;-67
2023/04/04 03:01:11;;;;;;;3.33;3.13;;;;;;;-4.25;100.00;97735.38;4952207;28;21106;-67
2023/04/04 03:03:39;;;;;;;2.97;2.80;;;;;;;-4.30;100.00;97734.78;4972483;28;20528;-68
2023/04/04 03:06:07;;;;;;;3.20;2.73;;;;;;;-4.31;100.00;97731.34;4978361;28;20324;-68
2023/04/04 03:08:36;;;;;;;2.67;2.57;;;;;;;-4.34;100.00;97725.50;4974701;28;20298;-67
2023/04/04 03:11:04;;;;;;;3.13;2.93;;;;;;;-4.32;100.00;97723.69;4932074;28;20240;-66
2023/04/04 03:13:32;;;;;;;3.33;3.10;;;;;;;-4.28;100.00;97727.78;4952039;28;20610;-66
2023/04/04 03:16:01;;;;;;;3.40;3.10;;;;;;;-4.27;100.00;97732.03;4951253;28;20818;-67
2023/04/04 03:18:29;;;;;;;3.30;3.10;;;;;;;-4.29;100.00;97728.69;4964926;28;20324;-67
2023/04/04 03:20:57;;;;;;;2.77;2.57;;;;;;;-4.33;100.00;97720.25;4950997;28;20240;-67
2023/04/04 03:23:25;;;;;;;3.27;3.07;;;;;;;-4.33;100.00;97725.41;4972537;28;20283;-68
2023/04/04 03:25:54;;;;;;;4.00;2.90;;;;;;;-4.38;100.00;97728.22;4930187;28;20213;-66
2023/04/04 03:28:22;;;;;;;2.93;2.80;;;;;;;-4.43;100.00;97726.78;4946844;28;20217;-67
2023/04/04 03:30:50;;;;;;;2.90;2.70;;;;;;;-4.44;100.00;97727.72;4956874;28;20770;-67
2023/04/04 03:33:18;;;;;;;3.03;2.83;;;;;;;-4.44;100.00;97725.94;4942253;28;20208;-67
2023/04/04 03:35:45;;;;;;;2.70;2.60;;;;;;;-4.41;100.00;97730.97;4973555;28;20715;-67
2023/04/04 03:38:13;;;;;;;3.30;3.10;;;;;;;-4.45;100.00;97731.22;4974729;28;20233;-67
2023/04/04 03:40:42;;;;;;;3.03;2.83;;;;;;;-4.47;100.00;97726.09;4907137;28;26501;-67
2023/04/04 03:43:12;;;;;;;3.17;2.93;;;;;;;-4.50;100.00;97721.06;4979699;28;20205;-67
2023/04/04 03:45:39;;;;;;;3.73;3.17;;;;;;;-4.45;100.00;97723.44;4957341;28;21036;-66
2023/04/04 03:48:07;;;;;;;5.30;3.87;;;;;;;-4.44;100.00;97725.13;4955191;28;21194;-67
2023/04/04 03:50:35;;;;;;;3.87;3.57;;;;;;;-4.46;100.00;97724.38;4980434;28;20472;-67
2023/04/04 03:53:03;;;;;;;3.58;3.28;;;;;;;-4.48;100.00;97724.44;4979896;28;20455;-66
2023/04/04 03:55:30;;;;;;;3.33;3.07;;;;;;;-4.46;100.00;97726.94;4958726;28;20294;-67
2023/04/04 03:57:58;;;;;;;3.47;3.23;;;;;;;-4.44;100.00;97725.13;4947614;28;20935;-67
2023/04/04 04:00:27;;;;;;;3.20;3.00;;;;;;;-4.30;100.00;97729.59;4960422;28;21886;-66
2023/04/04 04:02:55;;;;;;;3.67;3.37;;;;;;;-4.31;100.00;97728.75;4987714;28;20204;-67
2023/04/04 04:05:23;;;;;;;4.03;3.60;;;;;;;-4.25;100.00;97730.22;4959366;28;20247;-67
2023/04/04 04:07:51;;;;;;;3.17;2.97;;;;;;;-4.32;100.00;97731.44;4978836;28;20217;-68
2023/04/04 04:10:20;;;;;;;4.20;3.10;;;;;;;-4.33;100.00;97729.75;4964733;28;20231;-69
2023/04/04 04:12:48;;;;;;;3.67;3.38;;;;;;;-4.32;100.00;97723.69;4949123;28;20455;-68
2023/04/04 04:15:15;;;;;;;4.20;3.30;;;;;;;-4.40;100.00;97724.88;4977469;28;20200;-67
2023/04/04 04:17:44;;;;;;;4.30;3.43;;;;;;;-4.28;100.00;97741.53;4971475;28;20228;-67
2023/04/04 04:20:12;;;;;;;3.67;3.37;;;;;;;-4.26;100.00;97734.53;4955133;28;20228;-69
2023/04/04 04:22:45;;;;;;;3.77;3.47;;;;;;;-4.15;100.00;97740.94;4971221;28;20708;-67
2023/04/04 04:25:13;;;;;;;3.43;3.23;;;;;;;-4.13;100.00;97742.50;4978502;28;20208;-68
2023/04/04 04:27:41;;;;;;;4.00;3.60;;;;;;;-4.14;100.00;97734.84;4933334;28;20432;-68
2023/04/04 04:30:09;;;;;;;2.90;2.77;;;;;;;-4.21;100.00;97736.91;4977783;28;20254;-67
2023/04/04 04:32:37;;;;;;;2.87;2.77;;;;;;;-4.29;100.00;97737.28;4962708;28;20225;-68
2023/04/04 04:35:08;;;;;;;3.10;2.90;;;;;;;-4.37;100.00;97739.41;4958770;28;20209;-68
2023/04/04 04:37:36;;;;;;;3.67;3.23;;;;;;;-4.44;100.00;97731.13;4978050;28;20201;-68
2023/04/04 04:40:04;;;;;;;3.67;3.03;;;;;;;-4.60;100.00;97723.28;4981936;28;20225;-68
2023/04/04 04:42:31;;;;;;;3.60;3.40;;;;;;;-4.59;100.00;97730.13;4927195;28;20567;-68
2023/04/04 04:44:59;;;;;;;3.93;3.27;;;;;;;-4.68;100.00;97739.19;4983556;28;20201;-67
2023/04/04 04:47:27;;;;;;;3.23;3.00;;;;;;;-4.72;100.00;97735.09;4957057;28;20263;-67
2023/04/04 04:49:55;;;;;;;4.50;3.60;;;;;;;-4.78;100.00;97732.78;4982214;28;20232;-68
2023/04/04 04:52:24;;;;;;;3.60;3.30;;;;;;;-4.84;100.00;97718.41;4941900;28;20233;-69
2023/04/04 04:54:54;;;;;;;4.10;3.70;;;;;;;-4.78;100.00;97732.78;4978221;28;20212;-68
2023/04/04 04:57:22;;;;;;;3.53;3.33;;;;;;;-4.76;100.00;97736.13;4955837;28;20323;-68
2023/04/04 04:59:50;;;;;;;5.70;3.43;;;;;;;-4.76;100.00;97730.13;4940706;28;20491;-67
2023/04/04 05:02:18;;;;;;;5.97;3.67;;;;;;;-4.71;100.00;97734.16;4972855;28;20219;-68
2023/04/04 05:04:46;;;;;;;3.27;3.07;;;;;;;-4.70;100.00;97735.00;4977567;28;20197;-67
2023/04/04 05:07:13;;;;;;;3.37;3.03;;;;;;;-4.62;100.00;97743.22;4950252;28;20464;-69
2023/04/04 05:09:42;;;;;;;4.13;3.80;;;;;;;-4.53;100.00;97734.16;4974602;28;20201;-68
2023/04/04 05:12:10;;;;;;;4.20;3.80;;;;;;;-4.53;100.00;97734.16;4977179;28;20247;-69
2023/04/04 05:14:38;;;;;;;4.40;3.43;;;;;;;-4.55;100.00;97729.06;4902326;28;21052;-67
2023/04/04 05:17:06;;;;;;;3.67;3.37;;;;;;;-4.52;100.00;97734.09;4974492;28;20208;-67
2023/04/04 05:19:33;;;;;;;4.77;3.70;;;;;;;-4.44;100.00;97740.66;4970210;28;20209;-68
2023/04/04 05:22:01;;;;;;;3.67;3.47;;;;;;;-4.40;100.00;97739.56;4952758;28;20228;-68
2023/04/04 05:24:29;;;;;;;3.70;3.40;;;;;;;-4.35;100.00;97740.19;4968065;28;20888;-67
2023/04/04 05:26:58;;;;;;;4.33;4.00;;;;;;;-4.26;100.00;97742.28;4972559;28;20215;-67
2023/04/04 05:29:25;;;;;;;4.47;4.23;;;;;;;-4.19;100.00;97758.34;4947435;28;20718;-68
2023/04/04 05:31:53;;;;;;;4.50;4.20;;;;;;;-4.08;100.00;97752.66;4924112;28;20221;-66
2023/04/04 05:34:20;;;;;;;4.53;4.13;;;;;;;-3.94;100.00;97757.94;4971217;28;20212;-69
2023/04/04 05:36:48;;;;;;;3.90;3.60;;;;;;;-3.85;100.00;97737.66;4930939;28;20205;-67
2023/04/04 05:39:16;;;;;;;4.60;3.57;;;;;;;-3.47;100.00;97757.28;4973950;28;20454;-68
2023/04/04 05:41:43;;;;;;;3.23;2.93;;;;;;;-3.26;100.00;97758.72;4972735;28;20347;-67
2023/04/04 05:44:12;;;;;;;3.50;3.30;;;;;;;-3.08;100.00;97756.06;4952231;28;20209;-68
2023/04/04 05:46:40;;;;;;;3.37;3.13;;;;;;;-2.86;100.00;97753.09;4920243;28;21000;-67
2023/04/04 05:49:08;;;;;;;3.67;3.40;;;;;;;-2.71;100.00;97754.00;4976358;28;20367;-67
2023/04/04 05:51:35;;;;;;;4.13;3.83;;;;;;;-2.53;100.00;97754.72;4949556;28;20963;-67
2023/04/04 05:54:03;;;;;;;4.83;4.13;;;;;;;-2.42;100.00;97755.84;4955253;28;20493;-67
2023/04/04 05:56:31;;;;;;;4.70;4.40;;;;;;;-2.32;100.00;97746.63;4969861;28;20300;-67
2023/04/04 05:58:58;;;;;;;3.90;3.50;;;;;;;-2.27;100.00;97749.81;4953206;28;20228;-67
2023/04/04 06:01:28;;;;;;;3.73;3.30;;;;;;;-2.16;100.00;97754.34;4965085;28;20887;-66
2023/04/04 06:03:55;;;;;;;3.70;3.40;;;;;;;-2.07;100.00;97750.38;4925445;28;20213;-67
2023/04/04 06:06:23;;;;;;;5.33;3.20;;;;;;;-2.15;100.00;97730.03;4950760;28;20200;-68
2023/04/04 06:08:51;;;;;;;3.77;3.20;;;;;;;-1.89;100.00;97743.25;4954807;28;20209;-68
2023/04/04 06:11:21;;;;;;;5.57;3.27;;;;;;;-1.96;100.00;97752.34;4970663;28;20307;-68
2023/04/04 06:13:49;;;;;;;3.43;3.23;;;;;;;-2.17;100.00;97747.47;4951793;28;20348;-66
2023/04/04 06:16:17;;;;;;;3.10;2.90;;;;;;;-2.37;100.00;97754.69;4970127;28;20699;-67
2023/04/04 06:18:46;;;;;;;4.23;3.80;;;;;;;-2.54;100.00;97758.25;4922657;28;20619;-67
2023/04/04 06:21:14;;;;;;;3.23;3.03;;;;;;;-2.63;100.00;97751.81;4970954;28;20672;-67
2023/04/04 06:23:41;;;;;;;3.83;3.30;;;;;;;-2.53;100.00;97754.72;4930414;28;20514;-66
2023/04/04 06:26:11;;;;;;;3.37;3.07;;;;;;;-2.52;100.00;97750.34;4972185;28;20214;-67
2023/04/04 06:28:47;;;;;;;3.83;3.63;;;;;;;-2.17;100.00;97747.47;4951318;28;21080;-66
2023/04/04 06:31:14;;;;;;;3.97;3.77;;;;;;;-1.65;100.00;97748.72;4974703;28;20658;-67
2023/04/04 06:33:42;;;;;;;4.10;3.80;;;;;;;-1.49;100.00;97750.41;4919993;28;20782;-67
2023/04/04 06:36:11;;;;;;;6.10;4.40;;;;;;;-0.95;100.00;97741.81;4968350;28;20235;-68
2023/04/04 06:38:39;;;;;;;5.10;3.90;;;;;;;-0.87;100.00;97738.75;4951150;28;20255;-68
2023/04/04 06:41:06;;;;;;;3.80;3.40;;;;;;;-0.17;100.00;97750.69;4950159;28;20771;-67
2023/04/04 06:43:34;;;;;;;4.27;3.87;;;;;;;0.08;95.54;97748.22;4969348;28;20344;-66
2023/04/04 06:46:01;;;;;;;3.97;3.67;;;;;;;-0.19;95.12;97756.94;4952099;28;20471;-65
2023/04/04 06:48:29;;;;;;;7.47;3.70;;;;;;;-0.46;95.73;97750.84;4922915;28;20776;-67
2023/04/04 06:50:57;;;;;;;3.50;3.20;;;;;;;-0.65;96.20;97753.00;4974769;28;20235;-66
2023/04/04 06:53:26;;;;;;;3.73;3.43;;;;;;;-0.74;97.22;97755.25;4946873;28;20413;-68
2023/04/04 06:55:53;;;;;;;3.63;3.33;;;;;;;-0.62;97.98;97758.81;4952373;28;20209;-66
2023/04/04 06:58:21;;;;;;;5.70;4.60;;;;;;;-0.55;98.07;97764.47;4970601;28;20374;-67
2023/04/04 07:00:49;;;;;;;4.87;4.47;;;;;;;-0.53;97.83;97756.56;4950778;28;20233;-66
2023/04/04 07:03:19;;;;;;;4.90;4.50;;;;;;;-0.48;98.47;97755.31;4945266;28;20271;-66
2023/04/04 07:05:46;;;;;;;5.53;4.77;;;;;;;-0.44;97.82;97761.16;4964341;28;20920;-69
2023/04/04 07:08:15;;;;;;;3.23;2.93;;;;;;;-0.46;97.71;97760.44;4962580;28;20643;-67
2023/04/04 07:10:43;;;;;;;7.23;3.97;;;;;;;-0.40;99.34;97762.63;4941871;28;20765;-65
2023/04/04 07:13:11;;;;;;;5.73;3.50;;;;;;;-0.23;98.22;97753.72;4970909;28;20221;-67
2023/04/04 07:15:39;;;;;;;4.10;3.07;;;;;;;-0.09;98.49;97760.59;4966437;28;20714;-66
2023/04/04 07:18:07;;;;;;;4.40;3.10;;;;;;;-0.01;96.26;97763.53;4949496;28;20213;-67
2023/04/04 07:20:35;;;;;;;3.47;3.10;;;;;;;0.16;95.53;97766.75;4925956;28;20432;-67
2023/04/04 07:23:04;;;;;;;4.23;3.90;;;;;;;0.40;93.66;97772.09;4973411;28;20760;-66
2023/04/04 07:25:31;;;;;;;3.70;3.40;;;;;;;0.62;92.07;97769.78;4946703;28;20278;-65
2023/04/04 07:28:01;;;;;;;4.90;3.60;;;;;;;0.54;90.79;97763.28;4971872;28;20213;-65
2023/04/04 07:30:39;;;;;;;3.87;3.47;;;;;;;0.86;89.64;97764.63;4973832;28;20683;-66
2023/04/04 07:33:07;;;;;;;4.00;3.70;;;;;;;1.22;88.54;97762.09;4954578;28;20217;-66
2023/04/04 07:35:35;;;;;;;3.27;3.07;;;;;;;0.71;87.71;97769.94;4917507;28;22879;-67
2023/04/04 07:38:03;;;;;;;3.43;3.13;;;;;;;0.48;89.39;97771.53;4979147;28;20917;-65
2023/04/04 07:40:31;;;;;;;3.20;3.10;;;;;;;0.56;89.73;97766.63;4950180;28;20237;-67
2023/04/04 07:42:58;;;;;;;3.37;3.17;;;;;;;0.61;91.00;97768.94;4976294;28;20476;-67
2023/04/04 07:45:27;;;;;;;5.60;4.50;;;;;;;0.94;90.85;97764.03;4970618;28;20209;-67
2023/04/04 07:47:55;;;;;;;4.80;4.43;;;;;;;0.77;91.61;97760.88;4958038;28;20228;-66
2023/04/04 07:50:23;;;;;;;4.03;3.73;;;;;;;1.32;88.84;97764.88;4973674;28;20228;-68
2023/04/04 07:52:53;;;;;;;4.00;3.70;;;;;;;1.66;87.80;97757.19;4930757;28;20748;-67
2023/04/04 07:55:23;;;;;;;4.87;3.83;;;;;;;1.34;81.74;97748.16;4957014;28;20645;-69
2023/04/04 07:57:52;;;;;;;3.87;3.57;;;;;;;1.28;78.39;97753.81;4975030;28;20300;-67
2023/04/04 08:00:21;;;;;;;4.53;4.13;;;;;;;1.17;77.25;97754.59;4973879;28;20233;-68
2023/04/04 08:02:53;;;;;;;3.90;3.70;;;;;;;1.67;74.60;97757.06;4952846;28;20213;-67
2023/04/04 08:05:22;;;;;;;5.83;3.73;;;;;;;1.84;70.72;97749.75;4972449;28;20193;-68
2023/04/04 08:07:50;;;;;;;4.00;3.70;;;;;;;1.69;70.64;97760.38;4922544;28;20779;-66
2023/04/04 08:10:17;;;;;;;4.13;3.53;;;;;;;2.07;69.03;97760.25;4976788;28;20235;-67
2023/04/04 08:12:45;;;;;;;3.80;3.53;;;;;;;1.70;67.16;97764.66;4950215;28;20299;-66
2023/04/04 08:15:13;;;;;;;3.57;3.27;;;;;;;2.35;63.24;97759.00;4973171;28;20225;-67
2023/04/04 08:17:42;;;;;;;3.40;3.10;;;;;;;2.94;61.44;97759.66;4973568;28;20205;-65
2023/04/04 08:20:12;;;;;;;3.40;3.10;;;;;;;2.69;60.77;97752.91;4956962;28;20483;-67
2023/04/04 08:22:40;;;;;;;5.63;4.93;;;;;;;2.56;61.45;97756.50;4917968;28;20977;-66
2023/04/04 08:25:09;;;;;;;3.27;3.07;;;;;;;2.21;61.35;97746.13;4977318;28;20659;-67
2023/04/04 08:27:39;;;;;;;6.47;3.93;;;;;;;1.87;60.76;97749.53;4945371;28;20671;-66
2023/04/04 08:30:08;;;;;;;4.37;3.77;;;;;;;2.25;63.21;97747.56;4980419;28;20705;-67
2023/04/04 08:32:36;;;;;;;3.57;3.20;;;;;;;2.79;62.10;97746.00;4969966;28;20418;-66
2023/04/04 08:35:04;;;;;;;3.83;3.50;;;;;;;2.88;62.16;97749.69;4954694;28;20732;-65
2023/04/04 08:37:34;;;;;;;3.83;3.47;;;;;;;3.31;60.70;97740.19;4919030;28;21329;-67
2023/04/04 08:40:02;;;;;;;2.90;2.80;;;;;;;3.51;57.82;97746.44;4972305;28;20231;-66
2023/04/04 08:42:34;;;;;;;2.93;2.80;;;;;;;3.69;56.78;97746.72;4947272;28;20983;-65
2023/04/04 08:45:03;;;;;;;3.37;3.10;;;;;;;2.53;55.09;97754.13;4975746;28;20209;-66
2023/04/04 08:47:32;;;;;;;3.67;3.37;;;;;;;2.11;57.18;97752.06;4968582;28;20401;-65
2023/04/04 08:50:01;;;;;;;4.37;3.60;;;;;;;1.75;58.09;97748.66;4956168;28;20228;-66
2023/04/04 08:52:30;;;;;;;3.67;3.47;;;;;;;1.71;59.61;97752.44;4965810;28;20412;-65
2023/04/04 08:54:59;;;;;;;3.10;2.90;;;;;;;1.76;59.82;97752.09;4926606;28;20638;-66
2023/04/04 08:57:27;;;;;;;3.20;2.90;;;;;;;1.32;58.89;97750.03;4971633;28;20407;-65
2023/04/04 08:59:54;;;;;;;3.13;2.90;;;;;;;0.91;58.52;97757.28;4951968;28;20237;-65
2023/04/04 09:02:26;;;;;;;3.63;3.37;;;;;;;0.91;59.70;97738.19;4968347;28;20213;-67
2023/04/04 09:04:55;;;;;;;4.67;4.27;;;;;;;0.92;60.41;97751.13;4974044;28;20267;-66
2023/04/04 09:07:32;;;;;;;3.60;3.30;;;;;;;1.24;58.64;97749.75;4946870;28;20488;-66
2023/04/04 09:10:03;;;;;;;3.67;3.33;;;;;;;1.75;58.95;97735.59;4924902;28;20229;-66
2023/04/04 09:12:32;;;;;;;4.87;2.93;;;;;;;2.00;57.87;97736.38;4971155;28;20205;-66
2023/04/04 09:15:00;;;;;;;3.40;3.10;;;;;;;2.16;58.00;97736.84;4953028;28;20221;-66
2023/04/04 09:17:28;;;;;;;3.90;2.90;;;;;;;2.24;56.42;97738.88;4969745;28;20201;-66
2023/04/04 09:19:56;;;;;;;3.33;2.90;;;;;;;2.62;55.95;97736.03;4971580;28;20648;-66
2023/04/04 09:22:24;;;;;;;3.33;3.13;;;;;;;2.64;55.91;97732.34;4949640;28;20209;-67
2023/04/04 09:24:51;;;;;;;3.50;3.00;;;;;;;2.50;55.27;97733.44;4972280;28;20477;-66
2023/04/04 09:27:21;;;;;;;3.20;2.87;;;;;;;2.83;55.86;97729.09;4917191;28;20221;-67
2023/04/04 09:29:48;;;;;;;3.00;2.80;;;;;;;3.16;54.79;97723.94;4951017;28;20224;-65
2023/04/04 09:32:16;;;;;;;2.80;2.60;;;;;;;3.87;53.92;97725.16;4972230;28;20681;-67
2023/04/04 09:34:44;;;;;;;3.20;3.00;;;;;;;3.75;54.90;97724.38;4970956;28;20225;-66
2023/04/04 09:37:14;;;;;;;3.30;3.00;;;;;;;3.54;54.19;97729.63;4943868;28;20221;-66
2023/04/04 09:39:43;;;;;;;3.40;2.53;;;;;;;3.38;53.84;97728.25;4974157;28;20504;-66
2023/04/04 09:42:11;;;;;;;3.13;2.93;;;;;;;3.11;53.57;97733.94;4925322;28;20213;-67
2023/04/04 09:44:40;;;;;;;3.70;3.30;;;;;;;2.72;53.95;97737.81;4948178;28;20709;-67
2023/04/04 09:47:23;;;;;;;3.47;3.17;;;;;;;2.97;55.02;97737.66;4973450;28;20213;-66
2023/04/04 09:49:57;;;;;;;3.43;3.17;;;;;;;3.55;54.04;97737.38;4968044;28;20225;-66
2023/04/04 09:52:25;;;;;;;3.47;3.17;;;;;;;3.24;52.94;97731.19;4950762;28;20247;-67
2023/04/04 09:54:57;;;;;;;2.90;2.70;;;;;;;3.24;52.45;97734.63;4973217;28;21463;-66
2023/04/04 09:57:26;;;;;;;3.30;3.10;;;;;;;3.32;54.58;97736.63;4918278;28;20232;-67
2023/04/04 09:59:58;;;;;;;3.43;3.13;;;;;;;3.01;53.20;97742.50;4948778;28;20315;-67
2023/04/04 10:02:26;;;;;;;3.40;3.10;;;;;;;3.13;53.75;97738.09;4976243;28;20657;-67
2023/04/04 10:04:56;;;;;;;3.60;3.30;;;;;;;2.59;53.81;97742.34;4968780;28;20331;-66
2023/04/04 10:07:33;;;;;;;3.20;2.70;;;;;;;2.48;54.64;97721.41;4969674;28;20216;-66
2023/04/04 10:10:02;;;;;;;4.50;3.40;;;;;;;2.55;54.44;97727.84;4955334;28;20589;-67
2023/04/04 10:12:30;;;;;;;3.83;3.63;;;;;;;3.13;55.12;97732.84;4925492;28;20217;-66
2023/04/04 10:15:00;;;;;;;3.50;3.20;;;;;;;3.68;53.46;97724.09;4966855;28;20344;-66
2023/04/04 10:17:30;;;;;;;4.47;3.33;;;;;;;4.33;52.22;97716.03;4953274;28;20266;-65
2023/04/04 10:20:00;;;;;;;3.17;2.97;;;;;;;4.83;50.58;97722.28;4971171;28;20224;-67
2023/04/04 10:22:28;;;;;;;3.63;2.70;;;;;;;5.10;50.43;97718.19;4967144;28;20316;-66
2023/04/04 10:24:57;;;;;;;3.07;2.87;;;;;;;5.00;51.76;97715.56;4951141;28;20402;-65
2023/04/04 10:27:26;;;;;;;3.33;3.07;;;;;;;4.59;50.16;97726.06;4927647;28;20224;-68
2023/04/04 10:29:53;;;;;;;4.67;4.27;;;;;;;4.44;51.13;97719.53;4969718;28;20228;-66
2023/04/04 10:32:25;;;;;;;3.60;3.40;;;;;;;4.46;51.18;97720.25;4948478;28;20208;-67
2023/04/04 10:34:57;;;;;;;3.60;3.30;;;;;;;5.04;51.55;97713.47;4966973;28;20677;-67
2023/04/04 10:37:27;;;;;;;3.77;3.47;;;;;;;5.38;52.00;97707.03;4972363;28;20197;-67
2023/04/04 10:40:00;;;;;;;3.40;3.17;;;;;;;5.18;49.80;97707.00;4949982;28;20216;-66
2023/04/04 10:42:31;;;;;;;3.53;3.23;;;;;;;5.30;50.89;97718.22;4926688;28;20418;-67
2023/04/04 10:45:01;;;;;;;4.00;3.60;;;;;;;4.70;50.58;97719.06;4972256;28;21062;-66
2023/04/04 10:47:47;;;;;;;3.63;3.37;;;;;;;3.70;51.65;97722.16;4945135;28;20602;-67
2023/04/04 10:50:15;;;;;;;3.97;3.70;;;;;;;3.41;52.48;97711.44;4971491;28;20233;-66
2023/04/04 10:52:44;;;;;;;3.73;3.43;;;;;;;3.55;53.60;97716.41;4969575;28;20204;-67
2023/04/04 10:55:13;;;;;;;4.03;3.67;;;;;;;3.87;52.52;97715.53;4953078;28;20225;-65
2023/04/04 10:57:49;;;;;;;4.50;3.30;;;;;;;4.11;53.90;97711.78;4942043;28;20205;-67
2023/04/04 11:00:19;;;;;;;3.33;3.03;;;;;;;3.86;53.77;97708.63;4975245;28;21161;-66
2023/04/04 11:02:50;;;;;;;3.83;3.57;;;;;;;3.41;53.93;97701.81;4946556;28;20201;-67
2023/04/04 11:05:23;;;;;;;3.77;3.57;;;;;;;3.02;52.21;97706.72;4975938;28;20826;-65
2023/04/04 11:07:59;;;;;;;4.07;3.80;;;;;;;2.74;54.08;97687.97;4964101;28;20218;-66
2023/04/04 11:10:30;;;;;;;3.13;2.93;;;;;;;2.74;53.17;97711.50;4955660;28;20271;-65
2023/04/04 11:13:06;;;;;;;3.27;3.07;;;;;;;3.06;52.86;97691.59;4923457;28;21681;-66
2023/04/04 11:15:55;;;;;;;3.30;3.10;;;;;;;2.96;52.93;97689.69;4973179;28;20701;-67
2023/04/04 11:18:47;;;;;;;3.37;3.17;;;;;;;2.90;52.53;97671.88;4973709;28;20456;-67
2023/04/04 11:21:17;;;;;;;3.80;3.60;;;;;;;3.09;52.96;97683.50;4976360;28;20229;-66
2023/04/04 11:24:13;;;;;;;2.97;2.63;;;;;;;2.96;53.08;97686.25;4971891;28;20201;-67
2023/04/04 11:26:44;;;;;;;3.30;3.10;;;;;;;3.09;53.83;97684.31;4953956;28;20204;-67
2023/04/04 11:29:21;;;;;;;3.70;3.40;;;;;;;2.72;55.01;97685.50;4923690;28;20775;-67
2023/04/04 11:31:49;;;;;;;3.47;3.17;;;;;;;2.69;54.14;97692.75;4965632;28;21794;-67
2023/04/04 11:34:31;;;;;;;4.27;3.10;;;;;;;3.01;52.58;97689.34;4975964;28;20212;-66
2023/04/04 11:37:14;;;;;;;3.60;3.30;;;;;;;3.37;55.78;97673.34;4954616;28;22583;-66
2023/04/04 11:39:49;;;;;;;3.57;3.37;;;;;;;3.57;54.12;97659.47;4964204;28;20197;-67